• Join FlightAware (Why Join?)
  • Login
  • US Flag 
07:14PM EDT


 

Airport Tracker/Info


-or-


 

Live Flight TrackerFlight Track Log ✈ CTL16 ✈ 13-May-2013 ✈ KHAO - KBKL

Flight Track Log - Related Links

Times and Time Zones

All times are in EDT time to prevent confusion due to time zone crossing. See the CTL16 flight status page for this flight to view local times or setup timezone preferences in your user account.

Time Position Orientation Groundspeed Altitude Reporting Facility
EDT Latitude Longitude Course Direction KTS MPH feet Rate Location/Type
08:34PM 39.3667 -84.4833 33° Northeast 124 143 1,600  Level Cincinnati TRACON
08:35PM 39.3906 -84.4633 33° Northeast 141 162 2,100 780 Climbing Indianapolis Center
08:36PM 39.4153 -84.4272 48° Northeast 145 167 2,900 660 Climbing Indianapolis Center
08:37PM 39.4469 -84.3828 47° Northeast 164 189 3,500 480 Climbing Indianapolis Center
08:38PM 39.4800 -84.3389 46° Northeast 167 192 3,900 480 Climbing Indianapolis Center
08:39PM 39.5197 -84.2889 44° Northeast 172 198 4,500 540 Climbing Indianapolis Center
08:40PM 39.5528 -84.2444 46° Northeast 168 193 5,000 480 Climbing Indianapolis Center
08:41PM 39.5867 -84.2008 45° Northeast 168 193 5,500 540 Climbing Indianapolis Center
08:42PM 39.6222 -84.1617 40° Northeast 164 189 6,100 480 Climbing Indianapolis Center
08:43PM 39.6481 -84.1242 48° Northeast 167 192 6,500 420 Climbing Indianapolis Center
08:44PM 39.6856 -84.0722 47° Northeast 165 190 7,000 240 Climbing Indianapolis Center
08:45PM 39.7186 -84.0250 48° Northeast 180 207 7,100  Climbing Indianapolis Center
08:46PM 39.7556 -83.9808 43° Northeast 183 211 7,000 -60 Descending Indianapolis Center
08:47PM 39.7928 -83.9342 44° Northeast 183 211 7,000  Level Indianapolis Center
08:48PM 39.8297 -83.8872 44° Northeast 185 213 7,000  Level Indianapolis Center
08:49PM 39.8667 -83.8375 46° Northeast 185 213 7,000  Level Indianapolis Center
08:50PM 39.9044 -83.7897 44° Northeast 186 214 7,000  Level Indianapolis Center
08:51PM 39.9414 -83.7411 45° Northeast 188 216 7,000  Level Indianapolis Center
08:52PM 39.9783 -83.6939 44° Northeast 187 215 7,100  Climbing Indianapolis Center
08:53PM 40.0175 -83.6472 42° Northeast 187 215 7,000 -60 Descending Indianapolis Center
08:54PM 40.0547 -83.5972 46° Northeast 187 215 7,000  Level Indianapolis Center
08:55PM 40.0894 -83.5497 46° Northeast 187 215 7,000  Level Indianapolis Center
08:56PM 40.1286 -83.5028 42° Northeast 184 212 7,000  Level Indianapolis Center
08:57PM 40.1756 -83.4456 43° Northeast 186 214 7,100  Climbing Indianapolis Center
08:58PM 40.2067 -83.4086 42° Northeast 187 215 7,100 -120 Level Indianapolis Center
08:58PM 40.2147 -83.3981 45° Northeast 189 217 7,000 -120 Descending Indianapolis Center
08:59PM 40.2436 -83.3583 46° Northeast 190 219 7,000 60 Level Indianapolis Center
08:59PM 40.2514 -83.3483 44° Northeast 189 217 7,100  Climbing Indianapolis Center
09:00PM 40.2761 -83.3131 47° Northeast 187 215 7,000 -120 Descending Indianapolis Center
09:01PM 40.2867 -83.2981 47° Northeast 187 215 7,000  Level Indianapolis Center
09:01PM 40.3172 -83.2633 41° Northeast 186 214 7,000 60 Level Indianapolis Center
09:02PM 40.3256 -83.2514 48° Northeast 187 215 7,100  Climbing Indianapolis Center
09:03PM 40.3639 -83.2031 44° Northeast 188 216 7,000 -60 Descending Indianapolis Center
09:04PM 40.4028 -83.1556 43° Northeast 190 219 7,000  Level Indianapolis Center
09:05PM 40.4408 -83.1081 44° Northeast 188 216 7,100  Climbing Indianapolis Center
09:06PM 40.4797 -83.0619 42° Northeast 187 215 7,000 -240 Descending Indianapolis Center
09:07PM 40.5197 -83.0050 47° Northeast 188 216 6,700 -360 Descending Indianapolis Center
09:08PM 40.5503 -82.9425 57° Northeast 198 228 6,300 -420 Descending Indianapolis Center
09:09PM 40.5844 -82.8833 53° Northeast 201 231 5,900 -540 Descending Indianapolis Center
09:10PM 40.6175 -82.8239 54° Northeast 200 230 5,300 -480 Descending Indianapolis Center
09:11PM 40.6497 -82.7658 54° Northeast 197 227 5,000 -120 Descending Indianapolis Center
09:12PM 40.6781 -82.7092 57° Northeast 186 214 5,100  Climbing Indianapolis Center
09:13PM 40.7069 -82.6528 56° Northeast 184 212 5,000 -120 Descending Indianapolis Center
09:13PM 40.7200 -82.6350 46° Northeast 182 209 5,000  Level Cleveland Center
09:14PM 40.7394 -82.5972 56° Northeast 184 212 5,000  Level Cleveland Center
09:15PM 40.7717 -82.5381 54° Northeast 186 214 5,000  Level Cleveland Center
09:16PM 40.8039 -82.4786 54° Northeast 183 211 5,100  Climbing Cleveland Center
09:17PM 40.8361 -82.4247 52° Northeast 186 214 5,000 -60 Descending Cleveland Center
09:18PM 40.8597 -82.3758 57° Northeast 186 214 5,000  Level Cleveland Center
09:19PM 40.8878 -82.3189 57° Northeast 187 215 5,000  Level Cleveland Center
09:20PM 40.9200 -82.2622 53° Northeast 187 215 5,000  Level Cleveland Center
09:21PM 40.9458 -82.2022 60° Northeast 188 216 5,100  Climbing Cleveland Center
09:22PM 40.9756 -82.1508 53° Northeast 184 212 5,000 -180 Descending Cleveland Center
09:23PM 41.0056 -82.0936 55° Northeast 188 216 4,800 -360 Descending Cleveland Center
09:24PM 41.0400 -82.0256 56° Northeast 196 226 4,300 -480 Descending Cleveland Center
09:25PM 41.0678 -81.9711 56° Northeast 194 223 3,900 -480 Descending Cleveland Center
09:26PM 41.0975 -81.9139 55° Northeast 187 215 3,400 -480 Descending Cleveland Center
09:27PM 41.1253 -81.8567 57° Northeast 182 209 3,000 -240 Descending Cleveland Center
09:28PM 41.1550 -81.8019 54° Northeast 168 193 3,000  Level Cleveland Center
09:29PM 41.1908 -81.7642 38° Northeast 168 193 3,000  Level Cleveland Center
09:30PM 41.2289 -81.7206 41° Northeast 168 193 3,000  Level Cleveland Center
09:31PM 41.2647 -81.6769 42° Northeast 168 193 3,000  Level Cleveland Center
09:32PM 41.3025 -81.6472 31° Northeast 168 193 3,000  Level Cleveland Center
09:33PM 41.3464 -81.6314 15° North 164 189 3,000  Level Cleveland Center
09:34PM 41.3903 -81.6156 15° North 165 190 3,100 -300 Climbing Cleveland Center
09:35PM 41.4447 -81.6081 North 182 209 2,400 -660 Descending Cleveland Center
09:36PM 41.4925 -81.6228 347° North 175 201 1,800 -600 Descending Cleveland Center
09:37PM 41.5278 -81.6481 332° Northwest 116 133 1,200 -540 Descending Cleveland Center